Madeira — 9HAA9 — position and weather

sailwx.info

Track history (hours):
 
Tides and Currents Weather Stations Pressure Air Temp Water Temp Dewpoint Dewpoint Depression Visibility Wind Speed Wind Dir Waves Ship Positions

Madeira

Last reported at 2018-Jul-15 03:19 UTC. Time now 2018-Jul-23 07:38 UTC.
Position N 27°48' W 118°16'.
Warning: this ship's position is 8 days out of date.

Length 292 m; draft 8.6 m.

Type: Cargo ship. MMSI: 256668000.

Date/timePositionNaut miles runAvg speedWind from/ knotsBaromVisibWave heightAir tempDewpointWater temp
2018-Jul-15 03:19N 27°48' W 118°16'2714.7
2018-Jul-15 01:29N 28°04' W 118°40'4314.5
2018-Jul-14 22:33N 28°28' W 119°20'314.7
2018-Jul-14 22:21N 28°30' W 119°23'2614.8
2018-Jul-14 20:33N 28°46' W 119°47'114.8
2018-Jul-14 20:30N 28°46' W 119°48'2114.6
2018-Jul-14 19:04N 28°58' W 120°08'214.6
2018-Jul-14 18:56N 28°59' W 120°10'814.7
2018-Jul-14 18:23N 29°04' W 120°17'614.7
2018-Jul-14 18:00N 29°07' W 120°23'714.6
2018-Jul-14 17:29N 29°11' W 120°29'15415.0
2018-Jul-14 07:13N 30°38' W 122°57'1014.7
2018-Jul-14 06:30N 30°44' W 123°07'714.5
2018-Jul-14 06:00N 30°48' W 123°14'914.6
2018-Jul-14 05:25N 30°53' W 123°22'614.7
2018-Jul-14 05:00N 30°56' W 123°28'814.8
2018-Jul-14 04:29N 31°00' W 123°36'714.9
2018-Jul-14 04:01N 31°04' W 123°42'814.9
2018-Jul-14 03:27N 31°09' W 123°51'1114.9
2018-Jul-14 02:42N 31°15' W 124°02'414.8
2018-Jul-14 02:24N 31°17' W 124°06'714.8
2018-Jul-14 01:57N 31°21' W 124°12'  
Track history (hours):
 
Tides and Currents Weather Stations Pressure Air Temp Water Temp Dewpoint Dewpoint Depression Visibility Wind Speed Wind Dir Waves Ship Positions

Madeira

Last reported at 2018-Jul-15 03:19 UTC. Time now 2018-Jul-23 07:38 UTC.
Position N 27°48' W 118°16'.
Warning: this ship's position is 8 days out of date.

Length 292 m; draft 8.6 m.

Type: Cargo ship. MMSI: 256668000.

Date/timePositionNaut miles runAvg speedWind from/ knotsBaromVisibWave heightAir tempDewpointWater temp
2018-Jul-15 03:19N 27°48' W 118°16'2714.7
2018-Jul-15 01:29N 28°04' W 118°40'4314.5
2018-Jul-14 22:33N 28°28' W 119°20'314.7
2018-Jul-14 22:21N 28°30' W 119°23'2614.8
2018-Jul-14 20:33N 28°46' W 119°47'114.8
2018-Jul-14 20:30N 28°46' W 119°48'2114.6
2018-Jul-14 19:04N 28°58' W 120°08'214.6
2018-Jul-14 18:56N 28°59' W 120°10'814.7
2018-Jul-14 18:23N 29°04' W 120°17'614.7
2018-Jul-14 18:00N 29°07' W 120°23'714.6
2018-Jul-14 17:29N 29°11' W 120°29'15415.0
2018-Jul-14 07:13N 30°38' W 122°57'1014.7
2018-Jul-14 06:30N 30°44' W 123°07'714.5
2018-Jul-14 06:00N 30°48' W 123°14'914.6
2018-Jul-14 05:25N 30°53' W 123°22'614.7
2018-Jul-14 05:00N 30°56' W 123°28'814.8
2018-Jul-14 04:29N 31°00' W 123°36'714.9
2018-Jul-14 04:01N 31°04' W 123°42'814.9
2018-Jul-14 03:27N 31°09' W 123°51'1114.9
2018-Jul-14 02:42N 31°15' W 124°02'414.8
2018-Jul-14 02:24N 31°17' W 124°06'714.8
2018-Jul-14 01:57N 31°21' W 124°12'  

Dump ship's entire track history